Data for 09/23/2008

Time Sea-Level Adjusted Pressure Absolute Pressure Temperature Relative Humidity Dew Point   
(mb) (inHg) (mb) (inHg) (C) (F) (%) (C) (F)
00:05 1021 30.15 850 25.1 5 41.1 78 1.6 34.9
00:10 1021 30.15 850 25.1 4.8 40.7 81 1.8 35.2
00:15 1021 30.15 850 25.1 4.8 40.6 80 1.7 35.1
00:20 1021 30.15 850 25.1 4.8 40.6 78 1.3 34.3
00:25 1021 30.15 850 25.1 4.7 40.5 80 1.6 34.9
00:30 1021 30.15 850 25.1 4.7 40.5 78 1.3 34.3
00:35 1021 30.15 850 25.1 4.5 40.2 83 1.8 35.3
00:40 1021 30.15 850 25.1 4.4 39.9 82 1.6 34.9
00:45 1021 30.15 850 25.1 4.3 39.8 80 1.2 34.2
00:50 1021 30.15 850 25.1 4 39.3 85 1.7 35
00:55 1021 30.15 850 25.1 3.5 38.3 87 1.5 34.7
01:00 1021 30.15 850 25.1 3.1 37.6 88 1.3 34.3
01:05 1021 30.15 850 25.1 2.9 37.2 89 1.2 34.2
01:10 1021 30.15 850 25.1 2.9 37.2 88 1.1 34
01:15 1021 30.15 850 25.1 2.8 37 89 1.2 34.1
01:20 1021 30.15 850 25.1 2.6 36.6 91 1.2 34.2
01:25 1021 30.15 850 25.1 2.5 36.4 91 1.1 33.9
01:30 1021 30.15 850 25.1 2.6 36.7 90 1.1 34
01:35 1021 30.15 850 25.1 2.8 37.1 88 1 33.9
01:40 1021 30.15 850 25.1 3 37.4 88 1.1 34.1
01:45 1021 30.15 850 25.1 2.9 37.2 88 1.2 34.1
01:50 1021 30.15 850 25.1 2.7 36.8 89 1 33.8
01:55 1021 30.15 850 25.1 2.7 36.9 87 0.7 33.3
02:00 1021 30.15 850 25.1 2.7 36.9 86 0.6 33.2
02:05 1021 30.15 850 25.1 2.8 37 84 0.3 32.5
02:10 1021 30.15 850 25.1 3.2 37.7 81 0.2 32.4
02:15 1021 30.15 850 25.1 3.6 38.4 78 0.1 32.3
02:20 1021 30.15 850 25.1 3.7 38.7 78 0.2 32.3
02:25 1021 30.15 850 25.1 3.9 39 77 0.3 32.5
02:30 1021 30.15 851 25.13 3.9 39 77 0.2 32.4
02:35 1021 30.15 851 25.13 3.8 38.9 78 0.4 32.7
02:40 1021 30.15 851 25.13 3.6 38.4 80 0.5 32.9
02:45 1021 30.15 851 25.13 3.4 38.2 81 0.5 32.8
02:50 1021 30.15 851 25.13 3.5 38.3 79 0.2 32.4
02:55 1021 30.15 851 25.13 3.5 38.3 78 -0.1 31.9
03:00 1021 30.15 851 25.13 3.5 38.2 78 -0 32
03:05 1021 30.15 851 25.13 3.5 38.2 77 -0.2 31.7
03:10 1021 30.15 851 25.13 3.2 37.8 81 0.2 32.4
03:15 1021 30.15 851 25.13 2.8 37 82 -0.1 31.9
03:20 1021 30.15 851 25.13 2.7 36.8 81 -0.2 31.6
03:25 1021 30.15 851 25.13 2.8 37 80 -0.3 31.4
03:30 1021 30.15 851 25.13 2.9 37.3 78 -0.6 30.9
03:35 1021 30.15 851 25.13 3.3 38 77 -0.4 31.3
03:40 1021 30.15 851 25.13 3.4 38 77 -0.4 31.3
03:45 1021 30.15 851 25.13 3.2 37.7 83 0.6 33.1
03:50 1022 30.18 851 25.13 2.4 36.3 85 0.1 32.2
03:55 1022 30.18 851 25.13 2.3 36.1 85 0.1 32.2
04:00 1022 30.18 851 25.13 2.4 36.3 83 -0.3 31.5
04:05 1022 30.18 851 25.13 2.6 36.7 86 0.4 32.8
04:10 1022 30.18 851 25.13 2.5 36.5 85 0.3 32.5
04:15 1022 30.18 851 25.13 2.7 36.9 80 -0.4 31.3
04:20 1022 30.18 851 25.13 2.8 37 82 -0 32
04:25 1022 30.18 851 25.13 2.5 36.6 85 0.3 32.5
04:30 1022 30.18 851 25.13 2.2 35.9 86 0.1 32.2
04:35 1022 30.18 851 25.13 2.3 36.2 80 -0.8 30.5
04:40 1022 30.18 851 25.13 2.6 36.7 80 -0.5 31
04:45 1022 30.18 851 25.13 2.5 36.6 82 -0.2 31.6
04:50 1022 30.18 851 25.13 2.5 36.5 80 -0.6 30.9
04:55 1022 30.18 851 25.13 2.6 36.7 79 -0.6 30.9
05:00 1022 30.18 851 25.13 2.5 36.4 80 -0.6 30.8
05:05 1022 30.18 851 25.13 2.4 36.3 77 -1.3 29.6
05:10 1022 30.18 851 25.13 2.6 36.8 72 -1.8 28.7
05:15 1022 30.18 851 25.13 3.1 37.5 68 -2.2 28
05:20 1022 30.18 851 25.13 3.2 37.8 68 -2 28.3
05:25 1022 30.18 852 25.16 3.2 37.7 69 -1.8 28.7
05:30 1022 30.18 852 25.16 2.6 36.7 80 -0.5 31
05:35 1023 30.21 852 25.16 2.1 35.7 78 -1.4 29.5
05:40 1023 30.21 852 25.16 2.3 36.2 75 -1.7 28.9
05:45 1023 30.21 852 25.16 2.6 36.6 75 -1.4 29.5
05:50 1023 30.21 852 25.16 2.8 37 70 -2.1 28.3
05:55 1023 30.21 852 25.16 3 37.4 68 -2.4 27.6
06:00 1023 30.21 852 25.16 2.9 37.3 68 -2.5 27.5
06:05 1023 30.21 852 25.16 2.8 37.1 69 -2.2 28
06:10 1023 30.21 852 25.16 2.7 36.9 70 -2.3 27.9
06:15 1023 30.21 852 25.16 2.9 37.3 68 -2.5 27.6
06:20 1023 30.21 852 25.16 3.1 37.5 67 -2.5 27.5
06:25 1023 30.21 852 25.16 3.2 37.7 69 -2 28.5
06:30 1023 30.21 852 25.16 2.8 37 73 -1.6 29.2
06:35 1023 30.21 852 25.16 2.3 36.2 73 -2 28.4
06:40 1023 30.21 852 25.16 2.2 36 72 -2.3 27.8
06:45 1023 30.21 852 25.16 2.1 35.9 80 -0.9 30.4
06:50 1023 30.21 852 25.16 1.4 34.6 82 -1.2 29.8
06:55 1023 30.21 852 25.16 1.3 34.3 79 -2 28.3
07:00 1023 30.21 852 25.16 1.8 35.2 68 -3.5 25.7
07:05 1023 30.21 852 25.16 2.3 36.1 62 -4.2 24.4
07:10 1023 30.21 852 25.16 2.9 37.2 60 -4.1 24.6
07:15 1023 30.21 852 25.16 2.8 37.1 65 -3.2 26.3
07:20 1023 30.21 852 25.16 2.1 35.7 67 -3.4 25.9
07:25 1023 30.21 852 25.16 1.9 35.4 65 -3.9 25
07:30 1023 30.21 852 25.16 2.3 36.1 62 -4.3 24.3
07:35 1023 30.21 852 25.16 2.7 36.8 59 -4.6 23.7
07:40 1023 30.21 852 25.16 3 37.4 59 -4.3 24.3
07:45 1023 30.21 852 25.16 2.9 37.3 61 -3.8 25.2
07:50 1023 30.21 852 25.16 2.7 36.9 61 -4.1 24.7
07:55 1023 30.21 852 25.16 2.9 37.3 60 -4 24.7
08:00 1023 30.21 853 25.19 3.2 37.8 57 -4.5 23.9
08:05 1023 30.21 853 25.19 3.6 38.5 54 -4.7 23.5
08:10 1023 30.21 853 25.19 4 39.1 53 -4.8 23.3
08:15 1023 30.21 853 25.19 4.2 39.6 52 -4.6 23.6
08:20 1024 30.24 853 25.19 4.4 39.9 53 -4.3 24.3
08:25 1024 30.24 853 25.19 4.4 39.9 51 -4.8 23.4
08:30 1024 30.24 853 25.19 4.3 39.7 53 -4.4 24
08:35 1024 30.24 853 25.19 4.3 39.8 54 -4.2 24.4
08:40 1024 30.24 853 25.19 4.4 39.9 52 -4.7 23.6
08:45 1024 30.24 853 25.19 4.7 40.4 50 -4.8 23.4
08:50 1024 30.24 853 25.19 4.9 40.8 52 -4.2 24.5
08:55 1024 30.24 853 25.19 5.3 41.5 51 -4.1 24.6
09:00 1024 30.24 853 25.19 5.8 42.5 48 -4.3 24.3
09:05 1024 30.24 853 25.19 5.9 42.6 47 -4.5 23.9
09:10 1024 30.24 853 25.19 6.1 43.1 49 -3.9 25
09:15 1024 30.24 853 25.19 6.1 43.1 49 -3.9 25.1
09:20 1024 30.24 853 25.19 6.3 43.4 50 -3.5 25.8
09:25 1024 30.24 853 25.19 6.5 43.8 49 -3.5 25.6
09:30 1024 30.24 853 25.19 6.6 43.9 47 -4 24.9
09:35 1024 30.24 853 25.19 6.7 44.1 47 -3.6 25.5
09:40 1024 30.24 853 25.19 6.7 44.1 46 -4 24.9
09:45 1024 30.24 853 25.19 7.2 45 46 -3.6 25.5
09:50 1024 30.24 853 25.19 7.6 45.7 41 -4.8 23.3
09:55 1024 30.24 853 25.19 8 46.3 43 -3.9 25
10:00 1024 30.24 853 25.19 8.1 46.6 39 -4.9 23.3
10:05 1024 30.24 853 25.19 8.3 47 40 -4.4 24
10:10 1024 30.24 853 25.19 9 48.2 39 -4.1 24.6
10:15 1024 30.24 853 25.19 9.5 49 30 -7 19.3
10:20 1024 30.24 853 25.19 9.3 48.7 29 -8 17.6
10:25 1024 30.24 854 25.22 9.3 48.7 28 -8.3 17
10:30 1024 30.24 854 25.22 9.4 48.9 29 -7.9 17.7
10:35 1024 30.24 854 25.22 9.4 48.9 29 -7.9 17.7
10:40 1024 30.24 854 25.22 9.6 49.2 28 -8 17.6
10:45 1024 30.24 854 25.22 9.9 49.7 29 -7.4 18.7
10:50 1024 30.24 854 25.22 10.3 50.5 27 -7.7 18.1
10:55 1024 30.24 854 25.22 10.3 50.6 28 -7.4 18.8
11:00 1024 30.24 854 25.22 10.4 50.7 26 -8.4 16.9
11:05 1024 30.24 854 25.22 10.2 50.3 27 -8 17.6
11:10 1024 30.24 854 25.22 10.3 50.6 28 -7.6 18.4
11:15 1025 30.27 854 25.22 10.4 50.7 27 -7.9 17.8
11:20 1025 30.27 854 25.22 10.5 50.9 26 -8.1 17.5
11:25 1024 30.24 854 25.22 10.7 51.3 26 -7.8 18
11:30 1024 30.24 854 25.22 10.3 50.5 27 -8 17.5
11:35 1024 30.24 854 25.22 10.4 50.8 27 -7.6 18.3
11:40 1024 30.24 854 25.22 10.7 51.2 26 -7.8 17.9
11:45 1024 30.24 854 25.22 11 51.8 25 -8.1 17.4
11:50 1024 30.24 854 25.22 11 51.7 24 -8.6 16.5
11:55 1024 30.24 854 25.22 11.2 52.2 25 -8.1 17.5
12:00 1024 30.24 854 25.22 11.7 53.1 25 -7.8 17.9
12:05 1024 30.24 853 25.19 11.9 53.5 24 -8.2 17.3
12:10 1024 30.24 853 25.19 11.6 52.8 25 -7.7 18.1
12:15 1024 30.24 853 25.19 11.7 53 25 -7.9 17.7
12:20 1024 30.24 853 25.19 11.9 53.4 24 -8 17.6
12:25 1024 30.24 853 25.19 12.1 53.7 25 -7.5 18.5
12:30 1024 30.24 853 25.19 12.2 53.9 21 -9.3 15.3
12:35 1024 30.24 853 25.19 12 53.5 22 -9.1 15.6
12:40 1024 30.24 853 25.19 12.4 54.3 23 -8 17.6
12:45 1024 30.24 853 25.19 12.7 54.9 25 -7 19.5
12:50 1024 30.24 853 25.19 13 55.3 23 -7.5 18.4
12:55 1024 30.24 853 25.19 13.3 55.9 23 -7.6 18.3
13:00 1024 30.24 853 25.19 12.9 55.2 21 -8.9 16
13:05 1024 30.24 853 25.19 13 55.4 21 -8.6 16.6
13:10 1024 30.24 853 25.19 13.2 55.8 22 -8.3 17.1
13:15 1024 30.24 853 25.19 13.3 55.9 19 -10.2 13.7
13:20 1024 30.24 853 25.19 13 55.5 20 -9.3 15.3
13:25 1024 30.24 853 25.19 13.4 56.1 20 -9 15.8
13:30 1024 30.24 853 25.19 13.4 56.2 21 -8.5 16.8
13:35 1024 30.24 853 25.19 13.5 56.3 20 -9.1 15.5
13:40 1023 30.21 853 25.19 13.6 56.5 21 -8.5 16.8
13:45 1023 30.21 853 25.19 14 57.1 21 -8 17.6
13:50 1023 30.21 853 25.19 13.8 56.8 22 -7.7 18.1
13:55 1023 30.21 853 25.19 13.8 56.8 22 -7.6 18.4
14:00 1023 30.21 853 25.19 14 57.2 22 -7.6 18.3
14:05 1023 30.21 853 25.19 14.6 58.3 20 -7.9 17.8
14:10 1023 30.21 852 25.16 15 59 19 -8.7 16.3
14:15 1023 30.21 852 25.16 14.7 58.4 21 -7.7 18.2
14:20 1023 30.21 852 25.16 14.7 58.4 21 -7.6 18.3
14:25 1023 30.21 852 25.16 14.8 58.6 16 -10.9 12.3
14:30 1023 30.21 852 25.16 15 58.9 19 -8.7 16.4
14:35 1023 30.21 852 25.16 15.2 59.3 20 -7.8 18
14:40 1023 30.21 852 25.16 15.1 59.1 18 -9.4 15.2
14:45 1023 30.21 852 25.16 15.3 59.5 15 -11.1 12
14:50 1023 30.21 852 25.16 15.1 59.2 18 -9.3 15.2
14:55 1023 30.21 852 25.16 14.1 57.4 21 -8.1 17.5
15:00 1023 30.21 852 25.16 15 58.9 15 -11.2 11.9
15:05 1023 30.21 852 25.16 15.3 59.5 19 -8.3 17.1
15:10 1023 30.21 852 25.16 15 59.1 18 -9 15.8
15:15 1023 30.21 852 25.16 14.7 58.4 22 -7.1 19.3
15:20 1023 30.21 852 25.16 14.3 57.7 17 -10.7 12.8
15:25 1023 30.21 852 25.16 15.1 59.2 20 -7.6 18.4
15:30 1023 30.21 852 25.16 14.8 58.6 20 -7.9 17.7
15:35 1023 30.21 852 25.16 14 57.2 21 -8.3 17.1
15:40 1023 30.21 852 25.16 14.8 58.6 20 -8.1 17.5
15:45 1023 30.21 852 25.16 14.2 57.6 20 -8.2 17.2
15:50 1023 30.21 852 25.16 15 59 20 -7.7 18.1
15:55 1023 30.21 852 25.16 14.4 57.9 20 -8.1 17.4
16:00 1023 30.21 852 25.16 13.6 56.5 21 -8.1 17.5
16:05 1023 30.21 852 25.16 14 57.3 21 -8 17.6
16:10 1023 30.21 852 25.16 14.7 58.5 19 -8.5 16.8
16:15 1023 30.21 852 25.16 15 59.1 19 -8.4 16.8
16:20 1023 30.21 852 25.16 15.2 59.4 19 -8.3 17.1
16:25 1023 30.21 852 25.16 15.1 59.1 19 -8.2 17.3
16:30 1022 30.18 852 25.16 15.4 59.7 20 -7.2 19
16:35 1022 30.18 852 25.16 14.9 58.7 20 -8 17.6
16:40 1022 30.18 852 25.16 15.7 60.2 18 -8.5 16.7
16:45 1022 30.18 852 25.16 15.1 59.2 20 -7.9 17.8
16:50 1022 30.18 852 25.16 14.2 57.6 20 -8.6 16.6
16:55 1022 30.18 852 25.16 13.9 57 20 -8.9 16.1
17:00 1022 30.18 852 25.16 13.8 56.8 19 -9.2 15.5
17:05 1022 30.18 852 25.16 14.3 57.7 19 -8.9 15.9
17:10 1022 30.18 852 25.16 14.8 58.7 17 -9.6 14.7
17:15 1022 30.18 852 25.16 14.7 58.4 19 -8.8 16.2
17:20 1022 30.18 852 25.16 14.5 58 18 -9.4 15.2
17:25 1022 30.18 852 25.16 14.2 57.6 18 -9.7 14.5
17:30 1022 30.18 852 25.16 14 57.1 18 -9.9 14.1
17:35 1022 30.18 852 25.16 13.7 56.7 18 -10.3 13.4
17:40 1022 30.18 852 25.16 13.8 56.9 17 -10.5 13.1
17:45 1022 30.18 852 25.16 14.2 57.5 18 -9.8 14.4
17:50 1022 30.18 852 25.16 14.2 57.5 18 -10 14
17:55 1022 30.18 852 25.16 14.1 57.3 17 -10.8 12.6
18:00 1022 30.18 852 25.16 13.4 56.1 19 -10 13.9
18:05 1022 30.18 852 25.16 13.4 56.2 19 -10 14
18:10 1022 30.18 852 25.16 13.6 56.4 18 -10 14
18:15 1023 30.21 852 25.16 13.3 55.9 19 -9.6 14.6
18:20 1023 30.21 852 25.16 13.4 56.1 19 -9.7 14.5
18:25 1023 30.21 852 25.16 13.3 56 19 -9.8 14.4
18:30 1023 30.21 852 25.16 12.8 55.1 19 -10 14
18:35 1023 30.21 852 25.16 12.6 54.7 21 -8.9 16.1
18:40 1023 30.21 852 25.16 12.7 54.8 19 -10.7 12.8
18:45 1023 30.21 852 25.16 13 55.4 18 -10.6 13
18:50 1023 30.21 852 25.16 13.2 55.8 19 -9.8 14.4
18:55 1023 30.21 852 25.16 13.2 55.8 21 -8.9 16
19:00 1023 30.21 852 25.16 12.9 55.1 19 -10.4 13.2
19:05 1023 30.21 852 25.16 12.7 54.8 23 -7.6 18.3
19:10 1023 30.21 852 25.16 12.3 54.2 24 -7.5 18.4
19:15 1023 30.21 852 25.16 12 53.6 29 -5.4 22.2
19:20 1023 30.21 852 25.16 11.3 52.3 32 -4.8 23.3
19:25 1023 30.21 852 25.16 10.8 51.4 33 -4.6 23.7
19:30 1023 30.21 852 25.16 10.4 50.6 34 -4.9 23.2
19:35 1023 30.21 852 25.16 10.2 50.3 35 -4.7 23.5
19:40 1023 30.21 852 25.16 9.9 49.7 35 -5 23.1
19:45 1023 30.21 852 25.16 9.7 49.4 35 -4.9 23.2
19:50 1023 30.21 852 25.16 9.4 48.9 36 -4.8 23.3
19:55 1023 30.21 852 25.16 9 48.3 37 -4.8 23.4
20:00 1023 30.21 852 25.16 8.7 47.6 38 -4.7 23.5
20:05 1023 30.21 852 25.16 8.4 47.1 39 -4.8 23.4
20:10 1023 30.21 852 25.16 8.2 46.8 40 -4.6 23.8
20:15 1023 30.21 852 25.16 8 46.3 42 -4.3 24.3
20:20 1023 30.21 852 25.16 7.6 45.7 43 -4.3 24.3
20:25 1023 30.21 852 25.16 7.3 45.2 43 -4.5 24
20:30 1023 30.21 852 25.16 7.1 44.8 41 -5.3 22.4
20:35 1023 30.21 852 25.16 7.3 45.1 37 -6.4 20.4
20:40 1023 30.21 852 25.16 7.7 45.9 35 -6.6 20.1
20:45 1023 30.21 852 25.16 7.8 46 36 -6.4 20.5
20:50 1023 30.21 852 25.16 7.3 45.2 39 -5.6 22
20:55 1023 30.21 852 25.16 7.4 45.4 33 -7.8 17.9
21:00 1023 30.21 852 25.16 7.9 46.1 34 -7.1 19.2
21:05 1023 30.21 852 25.16 7.9 46.3 33 -7.3 18.8
21:10 1023 30.21 852 25.16 8.1 46.6 34 -6.9 19.5
21:15 1023 30.21 852 25.16 8 46.3 32 -7.6 18.3
21:20 1023 30.21 852 25.16 8.1 46.6 33 -7.1 19.3
21:25 1023 30.21 852 25.16 7.7 45.9 36 -6.5 20.3
21:30 1023 30.21 852 25.16 7.3 45.1 35 -7.1 19.2
21:35 1023 30.21 852 25.16 7.4 45.3 37 -6.3 20.6
21:40 1023 30.21 852 25.16 7 44.6 38 -6.5 20.3
21:45 1023 30.21 852 25.16 7 44.7 36 -6.9 19.6
21:50 1023 30.21 852 25.16 7.2 44.9 37 -6.4 20.5
21:55 1023 30.21 852 25.16 7.1 44.8 38 -6.2 20.9
22:00 1023 30.21 852 25.16 7.1 44.7 38 -6.5 20.4
22:05 1023 30.21 852 25.16 7.1 44.8 38 -6.4 20.6
22:10 1023 30.21 852 25.16 6.9 44.5 38 -6.5 20.2
22:15 1023 30.21 852 25.16 6.9 44.4 39 -6 21.2
22:20 1023 30.21 852 25.16 6.7 44.1 39 -6.2 20.8
22:25 1023 30.21 852 25.16 6.7 44.1 39 -6.4 20.5
22:30 1023 30.21 852 25.16 6.9 44.5 35 -7.4 18.6
22:35 1023 30.21 852 25.16 7.2 44.9 37 -6.5 20.3
22:40 1023 30.21 852 25.16 7 44.6 38 -6.5 20.3
22:45 1023 30.21 852 25.16 6.9 44.5 37 -6.6 20.1
22:50 1023 30.21 852 25.16 6.9 44.5 36 -7 19.4
22:55 1023 30.21 852 25.16 7.2 44.9 35 -7.2 19
23:00 1023 30.21 852 25.16 7.4 45.3 34 -7.6 18.4
23:05 1023 30.21 852 25.16 7.6 45.8 34 -7.2 19
23:10 1023 30.21 852 25.16 7.7 45.9 35 -6.7 20
23:15 1023 30.21 852 25.16 7.4 45.3 37 -6.5 20.3
23:20 1023 30.21 852 25.16 7.3 45.1 36 -6.7 19.9
23:25 1023 30.21 852 25.16 7.3 45.1 36 -6.7 20
23:30 1023 30.21 852 25.16 7.2 44.9 37 -6.4 20.5
23:35 1023 30.21 852 25.16 7.2 44.9 36 -6.8 19.8
23:40 1023 30.21 852 25.16 7.2 44.9 37 -6.5 20.2
23:45 1023 30.21 852 25.16 7.2 45 37 -6.4 20.4
23:50 1023 30.21 852 25.16 7.1 44.8 37 -6.6 20.2
23:55 1023 30.21 852 25.16 7.2 44.9 36 -6.7 19.9
24:00 1023 30.21 852 25.16 7.5 45.5 35 -6.9 19.7